Terminal Aerodrome Forecast
Issued by NWS

Home | Current Version | Previous Version | Text Only | Print | Product List | Glossary Off
Versions: 1 2 3 4 5 6 7 8 9 10 11 12 13 14 15 16 17 18 19 20 21 22 23 24

910
FTUS44 KTSA 261728
TAFXNA
TAF
KXNA 261728Z 2618/2718 18011KT P6SM OVC025
     FM270000 17012KT P6SM BKN250
     FM270600 16011KT P6SM VCTS OVC015CB PROB30 2706/2712 2SM +TSRA
      BKN015CB
     FM271200 17009KT P6SM VCTS OVC007CB PROB30 2712/2718 2SM +TSRA
      BKN007CB=

USA.gov is the U.S. government's official web portal to all federal, state and local government web resources and services.